Time,TemperatureF,DewpointF,PressureIn,WindDirection,WindDirectionDegrees,WindSpeedMPH,WindSpeedGustMPH,Humidity,HourlyPrecipIn,Conditions,Clouds,dailyrainin,SoftwareType,DateUTC
2013-06-22 10:00:00,84.0,77.0,30.09,ESE,110,9.0,10.0,78,-99.99,,,-99.99,,2013-06-22 14:00:00,
2013-06-22 12:00:00,84.0,77.0,30.10,East,90,10.0,12.0,80,-99.99,,,-99.99,,2013-06-22 16:00:00,
2013-06-22 12:22:00,84.0,77.0,30.10,East,90,10.0,12.0,80,-99.99,,,-99.99,,2013-06-22 16:22:00,
2013-06-22 12:34:00,84.0,77.0,30.10,East,90,10.0,12.0,80,-99.99,,,-99.99,,2013-06-22 16:34:00,
2013-06-22 12:43:00,84.0,77.0,30.10,East,90,10.0,12.0,80,-99.99,,,-99.99,,2013-06-22 16:43:00,
2013-06-22 12:52:00,84.0,77.0,30.10,East,90,10.0,12.0,80,-99.99,,,-99.99,,2013-06-22 16:52:00,
2013-06-22 13:00:00,84.0,78.0,30.10,East,90,7.0,8.0,80,-99.99,,,-99.99,,2013-06-22 17:00:00,
2013-06-22 13:22:00,84.0,78.0,30.10,East,90,7.0,8.0,80,-99.99,,,-99.99,,2013-06-22 17:22:00,
2013-06-22 13:34:00,84.0,78.0,30.10,East,90,7.0,8.0,80,-99.99,,,-99.99,,2013-06-22 17:34:00,
2013-06-22 13:43:00,84.0,78.0,30.10,East,90,7.0,8.0,80,-99.99,,,-99.99,,2013-06-22 17:43:00,
2013-06-22 13:52:00,84.0,78.0,30.10,East,90,7.0,8.0,80,-99.99,,,-99.99,,2013-06-22 17:52:00,
2013-06-22 14:00:00,84.0,79.0,30.09,East,90,10.0,12.0,82,-99.99,,,-99.99,,2013-06-22 18:00:00,
2013-06-22 14:22:00,84.0,79.0,30.09,East,90,10.0,12.0,82,-99.99,,,-99.99,,2013-06-22 18:22:00,
2013-06-22 14:33:00,84.0,79.0,30.09,East,90,10.0,12.0,82,-99.99,,,-99.99,,2013-06-22 18:33:00,
2013-06-22 14:43:00,84.0,79.0,30.09,East,90,10.0,12.0,82,-99.99,,,-99.99,,2013-06-22 18:43:00,
2013-06-22 14:52:00,84.0,79.0,30.09,East,90,10.0,12.0,82,-99.99,,,-99.99,,2013-06-22 18:52:00,
2013-06-22 15:00:00,85.0,79.0,30.07,East,90,12.0,14.0,83,-99.99,,,-99.99,,2013-06-22 19:00:00,
2013-06-22 15:21:00,85.0,79.0,30.07,East,90,12.0,14.0,83,-99.99,,,-99.99,,2013-06-22 19:21:00,
2013-06-22 15:33:00,85.0,79.0,30.07,East,90,12.0,14.0,83,-99.99,,,-99.99,,2013-06-22 19:33:00,
2013-06-22 15:42:00,85.0,79.0,30.07,East,90,12.0,14.0,83,-99.99,,,-99.99,,2013-06-22 19:42:00,
2013-06-22 15:52:00,85.0,79.0,30.07,East,90,12.0,14.0,83,-99.99,,,-99.99,,2013-06-22 19:52:00,
2013-06-22 16:00:00,85.0,78.0,30.06,East,100,13.0,14.0,81,-99.99,,,-99.99,,2013-06-22 20:00:00,
2013-06-22 16:22:00,85.0,78.0,30.06,East,100,13.0,14.0,81,-99.99,,,-99.99,,2013-06-22 20:22:00,
2013-06-22 16:33:00,85.0,78.0,30.06,East,100,13.0,14.0,81,-99.99,,,-99.99,,2013-06-22 20:33:00,
2013-06-22 16:42:00,85.0,78.0,30.06,East,100,13.0,14.0,81,-99.99,,,-99.99,,2013-06-22 20:42:00,
2013-06-22 16:53:00,85.0,78.0,30.06,East,100,13.0,14.0,81,-99.99,,,-99.99,,2013-06-22 20:53:00,
2013-06-22 17:00:00,85.0,79.0,30.06,East,100,14.0,15.0,81,-99.99,,,-99.99,,2013-06-22 21:00:00,
2013-06-22 17:21:00,85.0,79.0,30.06,East,100,14.0,15.0,81,-99.99,,,-99.99,,2013-06-22 21:21:00,
2013-06-22 17:33:00,85.0,79.0,30.06,East,100,14.0,15.0,81,-99.99,,,-99.99,,2013-06-22 21:33:00,
2013-06-22 17:43:00,85.0,79.0,30.06,East,100,14.0,15.0,81,-99.99,,,-99.99,,2013-06-22 21:43:00,
2013-06-22 17:53:00,85.0,79.0,30.06,East,100,14.0,15.0,81,-99.99,,,-99.99,,2013-06-22 21:53:00,
2013-06-22 18:00:00,85.0,78.0,30.05,East,100,14.0,17.0,80,-99.99,,,-99.99,,2013-06-22 22:00:00,
2013-06-22 18:23:00,85.0,78.0,30.05,East,100,14.0,17.0,80,-99.99,,,-99.99,,2013-06-22 22:23:00,
2013-06-22 18:33:00,85.0,78.0,30.05,East,100,14.0,17.0,80,-99.99,,,-99.99,,2013-06-22 22:33:00,
2013-06-22 18:43:00,85.0,78.0,30.05,East,100,14.0,17.0,80,-99.99,,,-99.99,,2013-06-22 22:43:00,
2013-06-22 18:52:00,85.0,78.0,30.05,East,100,14.0,17.0,80,-99.99,,,-99.99,,2013-06-22 22:52:00,
2013-06-22 19:00:00,84.0,78.0,30.04,East,100,15.0,16.0,80,-99.99,,,-99.99,,2013-06-22 23:00:00,
2013-06-22 19:21:00,84.0,78.0,30.04,East,100,15.0,16.0,80,-99.99,,,-99.99,,2013-06-22 23:21:00,
2013-06-22 19:33:00,84.0,78.0,30.04,East,100,15.0,16.0,80,-99.99,,,-99.99,,2013-06-22 23:33:00,
2013-06-22 19:42:00,84.0,78.0,30.04,East,100,15.0,16.0,80,-99.99,,,-99.99,,2013-06-22 23:42:00,
2013-06-22 19:52:00,84.0,78.0,30.04,East,100,15.0,16.0,80,-99.99,,,-99.99,,2013-06-22 23:52:00,
2013-06-22 20:00:00,83.0,78.0,30.06,East,90,14.0,14.0,84,-99.99,,,-99.99,,2013-06-23 00:00:00,
2013-06-22 20:21:00,83.0,78.0,30.06,East,90,14.0,14.0,84,-99.99,,,-99.99,,2013-06-23 00:21:00,
2013-06-22 20:33:00,83.0,78.0,30.06,East,90,14.0,14.0,84,-99.99,,,-99.99,,2013-06-23 00:33:00,
2013-06-22 20:42:00,83.0,78.0,30.06,East,90,14.0,14.0,84,-99.99,,,-99.99,,2013-06-23 00:42:00,
2013-06-22 20:52:00,83.0,78.0,30.06,East,90,14.0,14.0,84,-99.99,,,-99.99,,2013-06-23 00:52:00,
2013-06-22 21:00:00,83.0,79.0,30.07,East,100,14.0,14.0,86,-99.99,,,-99.99,,2013-06-23 01:00:00,
2013-06-22 21:21:00,83.0,79.0,30.07,East,100,14.0,14.0,86,-99.99,,,-99.99,,2013-06-23 01:21:00,
2013-06-22 21:32:00,83.0,79.0,30.07,East,100,14.0,14.0,86,-99.99,,,-99.99,,2013-06-23 01:32:00,
2013-06-22 21:42:00,83.0,79.0,30.07,East,100,14.0,14.0,86,-99.99,,,-99.99,,2013-06-23 01:42:00,
2013-06-22 21:52:00,83.0,79.0,30.07,East,100,14.0,14.0,86,-99.99,,,-99.99,,2013-06-23 01:52:00,
2013-06-22 22:00:00,83.0,80.0,30.08,ESE,110,16.0,17.0,90,-99.99,,,-99.99,,2013-06-23 02:00:00,
2013-06-22 22:21:00,83.0,80.0,30.08,ESE,110,16.0,17.0,90,-99.99,,,-99.99,,2013-06-23 02:21:00,
2013-06-22 22:31:00,83.0,80.0,30.08,ESE,110,16.0,17.0,90,-99.99,,,-99.99,,2013-06-23 02:31:00,
2013-06-22 22:41:00,83.0,80.0,30.08,ESE,110,16.0,17.0,90,-99.99,,,-99.99,,2013-06-23 02:41:00,
2013-06-22 22:52:00,83.0,80.0,30.08,ESE,110,16.0,17.0,90,-99.99,,,-99.99,,2013-06-23 02:52:00,